sensor_id;sensor_type;location;lat;lon;timestamp;P1;durP1;ratioP1;P2;durP2;ratioP2
38879;SDS011;25887;30.194;-97.880;2023-06-14T00:01:06;21.38;;;12.00;;
38879;SDS011;25887;30.194;-97.880;2023-06-14T00:03:32;22.13;;;12.90;;
38879;SDS011;25887;30.194;-97.880;2023-06-14T00:05:58;22.83;;;13.57;;
38879;SDS011;25887;30.194;-97.880;2023-06-14T00:08:24;25.30;;;13.55;;
38879;SDS011;25887;30.194;-97.880;2023-06-14T00:10:51;24.25;;;12.55;;
38879;SDS011;25887;30.194;-97.880;2023-06-14T00:13:17;22.35;;;12.77;;
38879;SDS011;25887;30.194;-97.880;2023-06-14T00:15:43;20.67;;;12.50;;
38879;SDS011;25887;30.194;-97.880;2023-06-14T00:18:10;22.58;;;13.60;;
38879;SDS011;25887;30.194;-97.880;2023-06-14T00:20:37;23.48;;;13.25;;
38879;SDS011;25887;30.194;-97.880;2023-06-14T00:23:04;23.50;;;13.38;;
38879;SDS011;25887;30.194;-97.880;2023-06-14T00:25:31;25.60;;;14.40;;
38879;SDS011;25887;30.194;-97.880;2023-06-14T00:27:57;22.38;;;13.52;;
38879;SDS011;25887;30.194;-97.880;2023-06-14T00:30:24;21.90;;;13.48;;
38879;SDS011;25887;30.194;-97.880;2023-06-14T00:32:50;24.65;;;13.23;;
38879;SDS011;25887;30.194;-97.880;2023-06-14T00:35:16;27.30;;;14.60;;
38879;SDS011;25887;30.194;-97.880;2023-06-14T00:37:43;23.70;;;13.35;;
38879;SDS011;25887;30.194;-97.880;2023-06-14T00:40:09;24.85;;;13.32;;
38879;SDS011;25887;30.194;-97.880;2023-06-14T00:42:35;24.55;;;13.90;;
38879;SDS011;25887;30.194;-97.880;2023-06-14T00:45:02;26.73;;;13.73;;
38879;SDS011;25887;30.194;-97.880;2023-06-14T00:47:28;24.55;;;13.07;;
38879;SDS011;25887;30.194;-97.880;2023-06-14T00:49:54;28.33;;;13.20;;
38879;SDS011;25887;30.194;-97.880;2023-06-14T00:52:22;22.83;;;12.98;;
38879;SDS011;25887;30.194;-97.880;2023-06-14T00:54:51;23.27;;;14.15;;
38879;SDS011;25887;30.194;-97.880;2023-06-14T00:57:17;22.20;;;13.00;;
38879;SDS011;25887;30.194;-97.880;2023-06-14T00:59:47;20.33;;;12.63;;
38879;SDS011;25887;30.194;-97.880;2023-06-14T01:02:14;25.55;;;13.63;;
38879;SDS011;25887;30.194;-97.880;2023-06-14T01:04:42;22.52;;;13.38;;
38879;SDS011;25887;30.194;-97.880;2023-06-14T01:07:12;25.48;;;12.60;;
38879;SDS011;25887;30.194;-97.880;2023-06-14T01:09:55;21.02;;;12.68;;
38879;SDS011;25887;30.194;-97.880;2023-06-14T01:12:39;24.10;;;13.80;;
38879;SDS011;25887;30.194;-97.880;2023-06-14T01:15:41;24.42;;;12.90;;
38879;SDS011;25887;30.194;-97.880;2023-06-14T01:18:09;22.75;;;13.10;;
38879;SDS011;25887;30.194;-97.880;2023-06-14T01:20:53;22.23;;;12.25;;
38879;SDS011;25887;30.194;-97.880;2023-06-14T01:23:20;23.20;;;12.48;;
38879;SDS011;25887;30.194;-97.880;2023-06-14T01:25:50;22.20;;;13.00;;
38879;SDS011;25887;30.194;-97.880;2023-06-14T01:28:21;24.38;;;13.75;;
38879;SDS011;25887;30.194;-97.880;2023-06-14T01:30:51;23.98;;;13.32;;
38879;SDS011;25887;30.194;-97.880;2023-06-14T01:33:21;25.50;;;13.27;;
38879;SDS011;25887;30.194;-97.880;2023-06-14T01:36:02;23.70;;;13.18;;
38879;SDS011;25887;30.194;-97.880;2023-06-14T01:38:30;26.95;;;13.18;;
38879;SDS011;25887;30.194;-97.880;2023-06-14T01:40:58;24.63;;;13.50;;
38879;SDS011;25887;30.194;-97.880;2023-06-14T01:43:27;27.10;;;13.60;;
38879;SDS011;25887;30.194;-97.880;2023-06-14T01:45:55;26.80;;;13.75;;
38879;SDS011;25887;30.194;-97.880;2023-06-14T01:48:25;24.50;;;13.82;;
38879;SDS011;25887;30.194;-97.880;2023-06-14T01:50:52;25.08;;;12.60;;
38879;SDS011;25887;30.194;-97.880;2023-06-14T01:53:18;23.40;;;12.63;;
38879;SDS011;25887;30.194;-97.880;2023-06-14T01:55:45;24.85;;;12.38;;
38879;SDS011;25887;30.194;-97.880;2023-06-14T01:58:14;23.92;;;12.60;;
38879;SDS011;25887;30.194;-97.880;2023-06-14T02:00:43;22.23;;;12.65;;
38879;SDS011;25887;30.194;-97.880;2023-06-14T02:03:10;23.10;;;13.35;;
38879;SDS011;25887;30.194;-97.880;2023-06-14T02:05:38;30.17;;;14.15;;
38879;SDS011;25887;30.194;-97.880;2023-06-14T02:08:05;25.80;;;12.88;;
38879;SDS011;25887;30.194;-97.880;2023-06-14T02:10:32;25.48;;;13.70;;
38879;SDS011;25887;30.194;-97.880;2023-06-14T02:12:58;23.33;;;12.57;;
38879;SDS011;25887;30.194;-97.880;2023-06-14T02:15:25;22.83;;;13.02;;
38879;SDS011;25887;30.194;-97.880;2023-06-14T02:17:59;22.27;;;11.93;;
38879;SDS011;25887;30.194;-97.880;2023-06-14T02:20:28;26.38;;;13.75;;
38879;SDS011;25887;30.194;-97.880;2023-06-14T02:22:55;24.35;;;12.48;;
38879;SDS011;25887;30.194;-97.880;2023-06-14T02:25:26;26.63;;;12.10;;
38879;SDS011;25887;30.194;-97.880;2023-06-14T02:27:55;23.98;;;12.57;;
38879;SDS011;25887;30.194;-97.880;2023-06-14T02:30:21;24.35;;;12.10;;
38879;SDS011;25887;30.194;-97.880;2023-06-14T02:32:47;23.10;;;12.73;;
38879;SDS011;25887;30.194;-97.880;2023-06-14T02:35:16;24.05;;;12.90;;
38879;SDS011;25887;30.194;-97.880;2023-06-14T02:37:43;23.48;;;12.38;;
38879;SDS011;25887;30.194;-97.880;2023-06-14T02:40:09;23.85;;;13.23;;
38879;SDS011;25887;30.194;-97.880;2023-06-14T02:42:47;23.65;;;12.52;;
38879;SDS011;25887;30.194;-97.880;2023-06-14T02:45:17;24.60;;;12.55;;
38879;SDS011;25887;30.194;-97.880;2023-06-14T02:47:43;23.30;;;12.50;;
38879;SDS011;25887;30.194;-97.880;2023-06-14T02:50:10;25.55;;;13.82;;
38879;SDS011;25887;30.194;-97.880;2023-06-14T02:52:37;24.50;;;13.02;;
38879;SDS011;25887;30.194;-97.880;2023-06-14T02:55:05;28.63;;;13.38;;
38879;SDS011;25887;30.194;-97.880;2023-06-14T02:57:31;24.33;;;12.65;;
38879;SDS011;25887;30.194;-97.880;2023-06-14T02:59:57;21.52;;;12.45;;
38879;SDS011;25887;30.194;-97.880;2023-06-14T03:02:23;26.85;;;12.23;;
38879;SDS011;25887;30.194;-97.880;2023-06-14T03:04:49;24.05;;;12.65;;
38879;SDS011;25887;30.194;-97.880;2023-06-14T03:07:16;25.35;;;13.18;;
38879;SDS011;25887;30.194;-97.880;2023-06-14T03:09:45;25.98;;;13.90;;
38879;SDS011;25887;30.194;-97.880;2023-06-14T03:12:12;20.20;;;12.32;;
38879;SDS011;25887;30.194;-97.880;2023-06-14T03:14:39;24.85;;;12.70;;
38879;SDS011;25887;30.194;-97.880;2023-06-14T03:17:07;26.77;;;13.00;;
38879;SDS011;25887;30.194;-97.880;2023-06-14T03:19:33;24.00;;;12.15;;
38879;SDS011;25887;30.194;-97.880;2023-06-14T03:21:59;20.55;;;11.02;;
38879;SDS011;25887;30.194;-97.880;2023-06-14T03:24:26;22.13;;;11.93;;
38879;SDS011;25887;30.194;-97.880;2023-06-14T03:26:57;22.25;;;11.60;;
38879;SDS011;25887;30.194;-97.880;2023-06-14T03:29:23;23.95;;;13.20;;
38879;SDS011;25887;30.194;-97.880;2023-06-14T03:31:57;27.85;;;12.23;;
38879;SDS011;25887;30.194;-97.880;2023-06-14T03:34:24;22.83;;;12.23;;
38879;SDS011;25887;30.194;-97.880;2023-06-14T03:36:51;22.30;;;12.13;;
38879;SDS011;25887;30.194;-97.880;2023-06-14T03:42:11;24.98;;;12.27;;
38879;SDS011;25887;30.194;-97.880;2023-06-14T03:44:38;24.30;;;13.13;;
38879;SDS011;25887;30.194;-97.880;2023-06-14T03:47:04;28.58;;;12.13;;
38879;SDS011;25887;30.194;-97.880;2023-06-14T03:49:31;20.95;;;11.07;;
38879;SDS011;25887;30.194;-97.880;2023-06-14T03:51:57;23.52;;;11.15;;
38879;SDS011;25887;30.194;-97.880;2023-06-14T03:54:24;20.98;;;10.98;;
38879;SDS011;25887;30.194;-97.880;2023-06-14T03:56:53;21.48;;;10.80;;
38879;SDS011;25887;30.194;-97.880;2023-06-14T03:59:21;19.23;;;11.43;;
38879;SDS011;25887;30.194;-97.880;2023-06-14T04:01:47;24.45;;;12.02;;
38879;SDS011;25887;30.194;-97.880;2023-06-14T04:04:14;17.70;;;10.38;;
38879;SDS011;25887;30.194;-97.880;2023-06-14T04:06:43;18.88;;;10.80;;
38879;SDS011;25887;30.194;-97.880;2023-06-14T04:09:13;19.13;;;10.52;;
38879;SDS011;25887;30.194;-97.880;2023-06-14T04:11:39;19.73;;;10.80;;
38879;SDS011;25887;30.194;-97.880;2023-06-14T04:14:05;20.33;;;10.77;;
38879;SDS011;25887;30.194;-97.880;2023-06-14T04:16:32;20.73;;;10.43;;
38879;SDS011;25887;30.194;-97.880;2023-06-14T04:18:58;19.42;;;9.88;;
38879;SDS011;25887;30.194;-97.880;2023-06-14T04:21:24;20.63;;;10.20;;
38879;SDS011;25887;30.194;-97.880;2023-06-14T04:29:46;20.27;;;10.55;;
38879;SDS011;25887;30.194;-97.880;2023-06-14T04:32:27;18.88;;;10.68;;
38879;SDS011;25887;30.194;-97.880;2023-06-14T04:37:49;18.20;;;10.20;;
38879;SDS011;25887;30.194;-97.880;2023-06-14T04:40:17;24.65;;;11.18;;
38879;SDS011;25887;30.194;-97.880;2023-06-14T04:42:43;21.58;;;10.90;;
38879;SDS011;25887;30.194;-97.880;2023-06-14T04:45:29;17.92;;;9.63;;
38879;SDS011;25887;30.194;-97.880;2023-06-14T04:48:25;22.33;;;10.65;;
38879;SDS011;25887;30.194;-97.880;2023-06-14T04:51:25;18.92;;;10.13;;
38879;SDS011;25887;30.194;-97.880;2023-06-14T04:53:57;24.08;;;11.15;;
38879;SDS011;25887;30.194;-97.880;2023-06-14T04:56:46;20.17;;;10.25;;
38879;SDS011;25887;30.194;-97.880;2023-06-14T04:59:13;19.33;;;10.35;;
38879;SDS011;25887;30.194;-97.880;2023-06-14T05:01:47;24.35;;;10.65;;
38879;SDS011;25887;30.194;-97.880;2023-06-14T05:06:56;19.02;;;10.07;;
38879;SDS011;25887;30.194;-97.880;2023-06-14T05:09:22;23.75;;;10.45;;
38879;SDS011;25887;30.194;-97.880;2023-06-14T05:11:49;19.40;;;10.23;;
38879;SDS011;25887;30.194;-97.880;2023-06-14T05:14:15;19.95;;;10.70;;
38879;SDS011;25887;30.194;-97.880;2023-06-14T05:16:50;21.13;;;10.98;;
38879;SDS011;25887;30.194;-97.880;2023-06-14T05:19:16;24.73;;;11.43;;
38879;SDS011;25887;30.194;-97.880;2023-06-14T05:21:43;24.45;;;12.23;;
38879;SDS011;25887;30.194;-97.880;2023-06-14T05:24:11;24.17;;;12.05;;
38879;SDS011;25887;30.194;-97.880;2023-06-14T05:26:56;23.60;;;11.15;;
38879;SDS011;25887;30.194;-97.880;2023-06-14T05:29:22;26.48;;;12.85;;
38879;SDS011;25887;30.194;-97.880;2023-06-14T05:31:58;22.65;;;11.70;;
38879;SDS011;25887;30.194;-97.880;2023-06-14T05:34:30;20.33;;;12.07;;
38879;SDS011;25887;30.194;-97.880;2023-06-14T05:36:56;21.77;;;12.55;;
38879;SDS011;25887;30.194;-97.880;2023-06-14T05:39:22;22.23;;;12.00;;
38879;SDS011;25887;30.194;-97.880;2023-06-14T05:42:02;24.35;;;12.27;;
38879;SDS011;25887;30.194;-97.880;2023-06-14T05:44:29;32.50;;;12.68;;
38879;SDS011;25887;30.194;-97.880;2023-06-14T05:47:02;25.40;;;13.65;;
38879;SDS011;25887;30.194;-97.880;2023-06-14T05:49:29;28.58;;;12.48;;
38879;SDS011;25887;30.194;-97.880;2023-06-14T05:51:55;25.98;;;12.18;;
38879;SDS011;25887;30.194;-97.880;2023-06-14T05:54:21;23.40;;;12.55;;
38879;SDS011;25887;30.194;-97.880;2023-06-14T05:59:59;29.45;;;13.02;;
38879;SDS011;25887;30.194;-97.880;2023-06-14T06:05:14;27.35;;;12.63;;
38879;SDS011;25887;30.194;-97.880;2023-06-14T06:07:44;26.15;;;13.00;;
38879;SDS011;25887;30.194;-97.880;2023-06-14T06:10:19;28.48;;;12.35;;
38879;SDS011;25887;30.194;-97.880;2023-06-14T06:12:46;25.45;;;12.02;;
38879;SDS011;25887;30.194;-97.880;2023-06-14T06:15:13;23.20;;;13.15;;
38879;SDS011;25887;30.194;-97.880;2023-06-14T06:17:40;23.58;;;12.02;;
38879;SDS011;25887;30.194;-97.880;2023-06-14T06:23:29;22.63;;;11.55;;
38879;SDS011;25887;30.194;-97.880;2023-06-14T06:25:56;22.33;;;12.10;;
38879;SDS011;25887;30.194;-97.880;2023-06-14T06:28:22;24.15;;;13.20;;
38879;SDS011;25887;30.194;-97.880;2023-06-14T06:31:05;29.55;;;13.05;;
38879;SDS011;25887;30.194;-97.880;2023-06-14T06:33:33;21.52;;;11.98;;
38879;SDS011;25887;30.194;-97.880;2023-06-14T06:36:23;24.80;;;12.75;;
38879;SDS011;25887;30.194;-97.880;2023-06-14T06:42:24;24.60;;;12.50;;
38879;SDS011;25887;30.194;-97.880;2023-06-14T06:45:15;23.63;;;13.05;;
38879;SDS011;25887;30.194;-97.880;2023-06-14T06:47:41;24.50;;;11.82;;
38879;SDS011;25887;30.194;-97.880;2023-06-14T06:50:07;23.02;;;11.63;;
38879;SDS011;25887;30.194;-97.880;2023-06-14T06:52:34;25.80;;;12.82;;
38879;SDS011;25887;30.194;-97.880;2023-06-14T06:55:00;24.52;;;12.85;;
38879;SDS011;25887;30.194;-97.880;2023-06-14T06:57:33;20.48;;;11.77;;
38879;SDS011;25887;30.194;-97.880;2023-06-14T07:00:20;20.25;;;11.73;;
38879;SDS011;25887;30.194;-97.880;2023-06-14T07:03:03;22.50;;;12.55;;
38879;SDS011;25887;30.194;-97.880;2023-06-14T07:05:39;22.30;;;11.30;;
38879;SDS011;25887;30.194;-97.880;2023-06-14T07:08:18;25.38;;;12.13;;
38879;SDS011;25887;30.194;-97.880;2023-06-14T07:10:44;21.42;;;11.98;;
38879;SDS011;25887;30.194;-97.880;2023-06-14T07:16:36;24.05;;;11.10;;
38879;SDS011;25887;30.194;-97.880;2023-06-14T07:19:10;22.40;;;11.73;;
38879;SDS011;25887;30.194;-97.880;2023-06-14T07:21:39;23.25;;;11.65;;
38879;SDS011;25887;30.194;-97.880;2023-06-14T07:24:18;20.50;;;11.77;;
38879;SDS011;25887;30.194;-97.880;2023-06-14T07:29:45;21.52;;;11.38;;
38879;SDS011;25887;30.194;-97.880;2023-06-14T07:32:12;27.40;;;10.63;;
38879;SDS011;25887;30.194;-97.880;2023-06-14T07:34:49;20.45;;;11.15;;
38879;SDS011;25887;30.194;-97.880;2023-06-14T07:37:26;21.83;;;10.60;;
38879;SDS011;25887;30.194;-97.880;2023-06-14T07:40:29;23.15;;;11.15;;
38879;SDS011;25887;30.194;-97.880;2023-06-14T07:42:56;21.00;;;11.23;;
38879;SDS011;25887;30.194;-97.880;2023-06-14T07:45:22;19.50;;;11.27;;
38879;SDS011;25887;30.194;-97.880;2023-06-14T07:47:48;21.75;;;11.73;;
38879;SDS011;25887;30.194;-97.880;2023-06-14T07:50:15;25.98;;;10.70;;
38879;SDS011;25887;30.194;-97.880;2023-06-14T07:52:41;19.35;;;10.68;;
38879;SDS011;25887;30.194;-97.880;2023-06-14T07:55:07;22.88;;;11.00;;
38879;SDS011;25887;30.194;-97.880;2023-06-14T07:57:34;22.40;;;11.13;;
38879;SDS011;25887;30.194;-97.880;2023-06-14T08:00:19;22.85;;;11.27;;
38879;SDS011;25887;30.194;-97.880;2023-06-14T08:02:47;20.65;;;10.95;;
38879;SDS011;25887;30.194;-97.880;2023-06-14T08:05:14;26.05;;;10.95;;
38879;SDS011;25887;30.194;-97.880;2023-06-14T08:07:40;22.10;;;10.50;;
38879;SDS011;25887;30.194;-97.880;2023-06-14T08:10:07;20.02;;;11.27;;
38879;SDS011;25887;30.194;-97.880;2023-06-14T08:15:27;25.02;;;12.13;;
38879;SDS011;25887;30.194;-97.880;2023-06-14T08:17:53;23.67;;;10.70;;
38879;SDS011;25887;30.194;-97.880;2023-06-14T08:20:20;21.65;;;11.10;;
38879;SDS011;25887;30.194;-97.880;2023-06-14T08:22:46;22.90;;;10.80;;
38879;SDS011;25887;30.194;-97.880;2023-06-14T08:25:13;22.70;;;10.82;;
38879;SDS011;25887;30.194;-97.880;2023-06-14T08:27:43;24.67;;;12.02;;
38879;SDS011;25887;30.194;-97.880;2023-06-14T08:30:10;22.35;;;11.45;;
38879;SDS011;25887;30.194;-97.880;2023-06-14T08:32:53;26.77;;;11.40;;
38879;SDS011;25887;30.194;-97.880;2023-06-14T08:35:22;29.20;;;11.35;;
38879;SDS011;25887;30.194;-97.880;2023-06-14T08:40:41;21.55;;;10.27;;
38879;SDS011;25887;30.194;-97.880;2023-06-14T08:43:08;21.48;;;11.60;;
38879;SDS011;25887;30.194;-97.880;2023-06-14T08:46:02;20.35;;;10.95;;
38879;SDS011;25887;30.194;-97.880;2023-06-14T08:48:29;23.75;;;11.27;;
38879;SDS011;25887;30.194;-97.880;2023-06-14T08:51:08;23.95;;;11.15;;
38879;SDS011;25887;30.194;-97.880;2023-06-14T08:53:35;23.75;;;11.48;;
38879;SDS011;25887;30.194;-97.880;2023-06-14T08:56:07;24.08;;;10.50;;
38879;SDS011;25887;30.194;-97.880;2023-06-14T08:58:42;25.90;;;11.68;;
38879;SDS011;25887;30.194;-97.880;2023-06-14T09:01:10;24.98;;;11.15;;
38879;SDS011;25887;30.194;-97.880;2023-06-14T09:03:41;22.20;;;11.23;;
38879;SDS011;25887;30.194;-97.880;2023-06-14T09:06:07;21.80;;;11.68;;
38879;SDS011;25887;30.194;-97.880;2023-06-14T09:08:40;24.45;;;11.70;;
38879;SDS011;25887;30.194;-97.880;2023-06-14T09:16:55;23.65;;;11.68;;
38879;SDS011;25887;30.194;-97.880;2023-06-14T09:19:22;20.48;;;11.57;;
38879;SDS011;25887;30.194;-97.880;2023-06-14T09:22:03;24.88;;;11.73;;
38879;SDS011;25887;30.194;-97.880;2023-06-14T09:31:48;20.30;;;11.07;;
38879;SDS011;25887;30.194;-97.880;2023-06-14T09:34:15;28.65;;;11.82;;
38879;SDS011;25887;30.194;-97.880;2023-06-14T09:36:44;22.00;;;10.75;;
38879;SDS011;25887;30.194;-97.880;2023-06-14T09:42:30;23.67;;;11.40;;
38879;SDS011;25887;30.194;-97.880;2023-06-14T09:44:57;19.38;;;11.32;;
38879;SDS011;25887;30.194;-97.880;2023-06-14T09:47:25;22.63;;;11.48;;
38879;SDS011;25887;30.194;-97.880;2023-06-14T09:49:51;24.58;;;11.00;;
38879;SDS011;25887;30.194;-97.880;2023-06-14T09:52:25;25.25;;;11.90;;
38879;SDS011;25887;30.194;-97.880;2023-06-14T09:54:53;23.65;;;11.65;;
38879;SDS011;25887;30.194;-97.880;2023-06-14T09:57:21;25.83;;;11.70;;
38879;SDS011;25887;30.194;-97.880;2023-06-14T09:59:58;20.98;;;11.68;;
38879;SDS011;25887;30.194;-97.880;2023-06-14T10:02:34;25.02;;;11.75;;
38879;SDS011;25887;30.194;-97.880;2023-06-14T10:05:08;21.45;;;11.48;;
38879;SDS011;25887;30.194;-97.880;2023-06-14T10:07:40;21.50;;;11.10;;
38879;SDS011;25887;30.194;-97.880;2023-06-14T10:10:14;21.25;;;12.18;;
38879;SDS011;25887;30.194;-97.880;2023-06-14T10:12:57;22.33;;;11.20;;
38879;SDS011;25887;30.194;-97.880;2023-06-14T10:19:23;26.95;;;12.98;;
38879;SDS011;25887;30.194;-97.880;2023-06-14T10:22:19;20.45;;;11.98;;
38879;SDS011;25887;30.194;-97.880;2023-06-14T10:25:02;20.17;;;11.43;;
38879;SDS011;25887;30.194;-97.880;2023-06-14T10:30:04;19.80;;;10.80;;
38879;SDS011;25887;30.194;-97.880;2023-06-14T10:32:33;25.58;;;12.55;;
38879;SDS011;25887;30.194;-97.880;2023-06-14T10:35:08;25.88;;;12.57;;
38879;SDS011;25887;30.194;-97.880;2023-06-14T10:37:41;22.80;;;11.43;;
38879;SDS011;25887;30.194;-97.880;2023-06-14T10:40:07;24.17;;;11.68;;
38879;SDS011;25887;30.194;-97.880;2023-06-14T10:42:54;25.85;;;12.77;;
38879;SDS011;25887;30.194;-97.880;2023-06-14T10:47:47;26.45;;;11.60;;
38879;SDS011;25887;30.194;-97.880;2023-06-14T10:50:27;19.10;;;11.43;;
38879;SDS011;25887;30.194;-97.880;2023-06-14T10:52:54;24.13;;;11.80;;
38879;SDS011;25887;30.194;-97.880;2023-06-14T10:55:21;28.05;;;12.23;;
38879;SDS011;25887;30.194;-97.880;2023-06-14T10:57:51;25.27;;;12.07;;
38879;SDS011;25887;30.194;-97.880;2023-06-14T11:00:24;26.17;;;12.82;;
38879;SDS011;25887;30.194;-97.880;2023-06-14T11:02:56;22.17;;;12.38;;
38879;SDS011;25887;30.194;-97.880;2023-06-14T11:05:49;26.15;;;12.05;;
38879;SDS011;25887;30.194;-97.880;2023-06-14T11:11:33;23.20;;;12.55;;
38879;SDS011;25887;30.194;-97.880;2023-06-14T11:14:02;25.00;;;11.48;;
38879;SDS011;25887;30.194;-97.880;2023-06-14T11:16:28;21.38;;;11.90;;
38879;SDS011;25887;30.194;-97.880;2023-06-14T11:19:08;27.80;;;12.82;;
38879;SDS011;25887;30.194;-97.880;2023-06-14T11:22:04;27.50;;;13.32;;
38879;SDS011;25887;30.194;-97.880;2023-06-14T11:24:32;25.05;;;12.30;;
38879;SDS011;25887;30.194;-97.880;2023-06-14T11:27:00;25.45;;;11.75;;
38879;SDS011;25887;30.194;-97.880;2023-06-14T11:32:15;27.63;;;11.30;;
38879;SDS011;25887;30.194;-97.880;2023-06-14T11:34:41;21.88;;;11.45;;
38879;SDS011;25887;30.194;-97.880;2023-06-14T11:37:41;22.83;;;12.10;;
38879;SDS011;25887;30.194;-97.880;2023-06-14T11:40:15;25.85;;;12.70;;
38879;SDS011;25887;30.194;-97.880;2023-06-14T11:42:42;23.63;;;12.20;;
38879;SDS011;25887;30.194;-97.880;2023-06-14T12:40:24;25.35;;;13.43;;
38879;SDS011;25887;30.194;-97.880;2023-06-14T12:42:51;24.45;;;12.52;;
38879;SDS011;25887;30.194;-97.880;2023-06-14T12:45:28;24.83;;;12.52;;
38879;SDS011;25887;30.194;-97.880;2023-06-14T12:48:06;24.20;;;13.40;;
38879;SDS011;25887;30.194;-97.880;2023-06-14T12:53:52;27.85;;;13.32;;
38879;SDS011;25887;30.194;-97.880;2023-06-14T12:56:19;28.88;;;13.63;;
38879;SDS011;25887;30.194;-97.880;2023-06-14T12:58:45;24.95;;;13.48;;
38879;SDS011;25887;30.194;-97.880;2023-06-14T13:01:11;22.83;;;12.63;;
38879;SDS011;25887;30.194;-97.880;2023-06-14T13:03:44;25.85;;;13.35;;
38879;SDS011;25887;30.194;-97.880;2023-06-14T13:06:10;25.92;;;13.63;;
38879;SDS011;25887;30.194;-97.880;2023-06-14T13:12:14;25.10;;;12.90;;
38879;SDS011;25887;30.194;-97.880;2023-06-14T13:14:41;26.27;;;13.02;;
38879;SDS011;25887;30.194;-97.880;2023-06-14T13:17:10;27.88;;;13.15;;
38879;SDS011;25887;30.194;-97.880;2023-06-14T13:19:37;27.33;;;14.23;;
38879;SDS011;25887;30.194;-97.880;2023-06-14T13:22:03;24.42;;;12.18;;
38879;SDS011;25887;30.194;-97.880;2023-06-14T13:24:30;26.50;;;12.82;;
38879;SDS011;25887;30.194;-97.880;2023-06-14T13:26:56;26.73;;;13.15;;
38879;SDS011;25887;30.194;-97.880;2023-06-14T13:29:39;27.52;;;13.65;;
38879;SDS011;25887;30.194;-97.880;2023-06-14T13:32:23;24.40;;;13.63;;
38879;SDS011;25887;30.194;-97.880;2023-06-14T13:35:01;27.08;;;14.27;;
38879;SDS011;25887;30.194;-97.880;2023-06-14T13:38:03;28.30;;;13.45;;
38879;SDS011;25887;30.194;-97.880;2023-06-14T13:40:30;27.42;;;13.90;;
38879;SDS011;25887;30.194;-97.880;2023-06-14T13:45:43;29.05;;;13.27;;
38879;SDS011;25887;30.194;-97.880;2023-06-14T13:48:10;26.33;;;14.35;;
38879;SDS011;25887;30.194;-97.880;2023-06-14T13:50:36;24.08;;;13.68;;
38879;SDS011;25887;30.194;-97.880;2023-06-14T13:53:13;30.10;;;12.98;;
38879;SDS011;25887;30.194;-97.880;2023-06-14T13:55:41;21.50;;;13.27;;
38879;SDS011;25887;30.194;-97.880;2023-06-14T13:58:07;28.70;;;14.52;;
38879;SDS011;25887;30.194;-97.880;2023-06-14T14:00:33;28.13;;;13.75;;
38879;SDS011;25887;30.194;-97.880;2023-06-14T14:03:00;29.45;;;14.57;;
38879;SDS011;25887;30.194;-97.880;2023-06-14T14:05:26;24.63;;;13.27;;
38879;SDS011;25887;30.194;-97.880;2023-06-14T14:07:55;28.88;;;14.30;;
38879;SDS011;25887;30.194;-97.880;2023-06-14T14:10:52;21.90;;;12.63;;
38879;SDS011;25887;30.194;-97.880;2023-06-14T14:13:18;24.17;;;13.32;;
38879;SDS011;25887;30.194;-97.880;2023-06-14T14:15:45;23.65;;;12.90;;
38879;SDS011;25887;30.194;-97.880;2023-06-14T14:18:11;21.30;;;13.13;;
38879;SDS011;25887;30.194;-97.880;2023-06-14T14:20:39;23.25;;;12.85;;
38879;SDS011;25887;30.194;-97.880;2023-06-14T17:24:31;20.90;;;12.73;;
38879;SDS011;25887;30.194;-97.880;2023-06-14T17:27:17;22.83;;;13.57;;
38879;SDS011;25887;30.194;-97.880;2023-06-14T17:29:49;21.40;;;12.50;;
38879;SDS011;25887;30.194;-97.880;2023-06-14T17:32:15;27.38;;;12.75;;
38879;SDS011;25887;30.194;-97.880;2023-06-14T17:34:41;25.15;;;13.30;;
38879;SDS011;25887;30.194;-97.880;2023-06-14T17:40:08;21.00;;;12.52;;
38879;SDS011;25887;30.194;-97.880;2023-06-14T17:42:35;22.55;;;13.35;;
38879;SDS011;25887;30.194;-97.880;2023-06-14T17:45:01;23.40;;;13.27;;
38879;SDS011;25887;30.194;-97.880;2023-06-14T17:47:27;27.83;;;13.32;;
38879;SDS011;25887;30.194;-97.880;2023-06-14T17:49:53;23.73;;;13.13;;
38879;SDS011;25887;30.194;-97.880;2023-06-14T17:52:23;20.02;;;12.30;;
38879;SDS011;25887;30.194;-97.880;2023-06-14T17:54:49;21.95;;;13.32;;
38879;SDS011;25887;30.194;-97.880;2023-06-14T17:57:20;25.13;;;13.68;;
38879;SDS011;25887;30.194;-97.880;2023-06-14T18:00:25;22.73;;;13.00;;
38879;SDS011;25887;30.194;-97.880;2023-06-14T18:02:51;21.95;;;13.52;;
38879;SDS011;25887;30.194;-97.880;2023-06-14T18:05:17;24.80;;;12.98;;
38879;SDS011;25887;30.194;-97.880;2023-06-14T18:08:02;26.33;;;14.25;;
38879;SDS011;25887;30.194;-97.880;2023-06-14T18:10:43;23.15;;;14.02;;
38879;SDS011;25887;30.194;-97.880;2023-06-14T18:13:16;21.80;;;12.98;;
38879;SDS011;25887;30.194;-97.880;2023-06-14T18:16:00;25.27;;;13.90;;
38879;SDS011;25887;30.194;-97.880;2023-06-14T18:18:32;23.20;;;14.15;;
38879;SDS011;25887;30.194;-97.880;2023-06-14T18:23:52;26.27;;;13.65;;
38879;SDS011;25887;30.194;-97.880;2023-06-14T18:26:21;23.88;;;13.82;;
38879;SDS011;25887;30.194;-97.880;2023-06-14T18:28:48;22.50;;;14.02;;
38879;SDS011;25887;30.194;-97.880;2023-06-14T18:31:23;26.35;;;12.90;;
38879;SDS011;25887;30.194;-97.880;2023-06-14T18:34:29;20.67;;;12.88;;
38879;SDS011;25887;30.194;-97.880;2023-06-14T18:36:55;20.52;;;12.40;;
38879;SDS011;25887;30.194;-97.880;2023-06-14T18:39:24;23.83;;;11.93;;
38879;SDS011;25887;30.194;-97.880;2023-06-14T18:41:50;22.98;;;13.48;;
38879;SDS011;25887;30.194;-97.880;2023-06-14T18:44:16;26.33;;;14.30;;
38879;SDS011;25887;30.194;-97.880;2023-06-14T18:49:50;21.90;;;13.25;;
38879;SDS011;25887;30.194;-97.880;2023-06-14T18:52:16;21.55;;;13.68;;
38879;SDS011;25887;30.194;-97.880;2023-06-14T18:54:44;22.95;;;13.20;;
38879;SDS011;25887;30.194;-97.880;2023-06-14T18:57:10;23.40;;;13.95;;
38879;SDS011;25887;30.194;-97.880;2023-06-14T18:59:38;23.92;;;13.13;;
38879;SDS011;25887;30.194;-97.880;2023-06-14T19:02:05;21.73;;;13.63;;
38879;SDS011;25887;30.194;-97.880;2023-06-14T19:04:45;25.58;;;13.32;;
38879;SDS011;25887;30.194;-97.880;2023-06-14T19:07:35;24.48;;;13.15;;
38879;SDS011;25887;30.194;-97.880;2023-06-14T19:10:25;21.92;;;12.63;;
38879;SDS011;25887;30.194;-97.880;2023-06-14T19:12:51;23.05;;;13.48;;
38879;SDS011;25887;30.194;-97.880;2023-06-14T19:15:22;26.58;;;13.20;;
38879;SDS011;25887;30.194;-97.880;2023-06-14T19:18:22;24.63;;;13.48;;
38879;SDS011;25887;30.194;-97.880;2023-06-14T19:20:48;21.80;;;13.13;;
38879;SDS011;25887;30.194;-97.880;2023-06-14T19:23:14;22.70;;;14.18;;
38879;SDS011;25887;30.194;-97.880;2023-06-14T19:25:47;24.67;;;13.90;;
38879;SDS011;25887;30.194;-97.880;2023-06-14T19:28:13;24.43;;;13.30;;
38879;SDS011;25887;30.194;-97.880;2023-06-14T19:30:40;21.65;;;13.10;;
38879;SDS011;25887;30.194;-97.880;2023-06-14T19:33:22;26.05;;;14.65;;
38879;SDS011;25887;30.194;-97.880;2023-06-14T19:36:16;23.38;;;13.88;;
38879;SDS011;25887;30.194;-97.880;2023-06-14T19:38:45;25.13;;;13.60;;
38879;SDS011;25887;30.194;-97.880;2023-06-14T19:41:12;27.55;;;14.48;;
38879;SDS011;25887;30.194;-97.880;2023-06-14T19:43:41;28.60;;;14.43;;